Taurus — WDF3127 — position and weather

sailwx.info

Track history (hours):
 
Tides and Currents Weather Stations Pressure Air Temp Water Temp Dewpoint Dewpoint Depression Visibility Wind Speed Wind Dir Waves Ship Positions

Taurus

Owner: San Francisco Bay Area Water Emergency Transportation Authority, San Francisco, CA. More information available from US FCC via Universal Licensing System and Coast Guard Vessel Documentation Center.

Last reported at 2017-Aug-09 18:34 UTC. Time now 2017-Sep-19 15:32 UTC.
Position N 37°47' W 122°17'.
Warning: this ship's position is 40 days out of date.

Type: Passenger vessel. MMSI: 367436230.

Date/timePositionNaut miles runAvg speedWind from/ knotsBaromVisibWave heightAir tempDewpointWater temp
2017-Aug-09 18:34N 37°47' W 122°17'0 0.1
2017-Aug-09 18:28N 37°47' W 122°17'0 0.0
2017-Aug-07 21:15N 37°47' W 122°17'0 0.9
2017-Aug-07 21:01N 37°48' W 122°18'2 4.7
2017-Aug-07 20:29N 37°45' W 122°19'1 2.5
2017-Aug-07 20:00N 37°44' W 122°19'1 1.1
2017-Aug-07 19:31N 37°44' W 122°19'2 3.7
2017-Aug-07 19:00N 37°42' W 122°20'1 1.5
2017-Aug-07 18:30N 37°43' W 122°21'3 5.9
2017-Aug-07 18:00N 37°46' W 122°22'4 8.4
2017-Aug-07 17:30N 37°48' W 122°17'611.3
2017-Aug-07 16:59N 37°49' W 122°25'510.1
2017-Aug-07 16:31N 37°45' W 122°21'5 9.6
2017-Aug-07 16:00N 37°40' W 122°23'  
2017-Aug-05 03:28N 37°40' W 122°23'818.3
2017-Aug-05 03:01N 37°48' W 122°20'1 2.4
2017-Aug-05 02:31N 37°48' W 122°19'816.7
2017-Aug-05 02:00N 37°40' W 122°23'714.0
2017-Aug-05 01:31N 37°44' W 122°16'714.1
2017-Aug-05 01:00N 37°48' W 122°24'4 7.1
2017-Aug-05 00:30N 37°48' W 122°19'2 3.5
2017-Aug-05 00:01N 37°48' W 122°17'815.1
2017-Aug-04 23:31N 37°41' W 122°21'2 3.1
2017-Aug-04 23:01N 37°40' W 122°23'815.8
2017-Aug-04 22:30N 37°48' W 122°24'0 0.8
2017-Aug-04 22:00N 37°48' W 122°24'0 0.0
2017-Aug-04 21:30N 37°48' W 122°24'0 0.0
2017-Aug-04 21:01N 37°48' W 122°24'0 0.0
2017-Aug-04 20:28N 37°48' W 122°24'0 0.0
2017-Aug-04 19:58N 37°48' W 122°24'0 0.0
2017-Aug-04 19:28N 37°48' W 122°24'0 0.0
2017-Aug-04 18:58N 37°48' W 122°24'0 0.0
2017-Aug-04 18:28N 37°48' W 122°24'0 0.0
2017-Aug-04 17:58N 37°48' W 122°24'1 1.9
2017-Aug-04 17:30N 37°49' W 122°25'0 0.0
2017-Aug-04 17:00N 37°49' W 122°25'1 2.7
2017-Aug-04 16:30N 37°48' W 122°23'815.0
2017-Aug-04 15:59N 37°40' W 122°23'613.3
2017-Aug-04 15:31N 37°46' W 122°21'3 5.6
2017-Aug-04 15:00N 37°47' W 122°18'4 4.1
2017-Aug-04 14:01N 37°44' W 122°21'4 8.8
2017-Aug-04 13:30N 37°48' W 122°17'0 0.7
2017-Aug-04 12:58N 37°48' W 122°17'0 0.0
2017-Aug-04 02:40N 37°48' W 122°17'1 4.5
2017-Aug-04 02:31N 37°47' W 122°18'817.0
2017-Aug-04 02:01N 37°40' W 122°23'713.8
2017-Aug-04 01:31N 37°44' W 122°16'714.0
2017-Aug-04 01:00N 37°48' W 122°24'1 1.6
2017-Aug-04 00:30N 37°47' W 122°23'5 9.2
2017-Aug-04 00:01N 37°48' W 122°17'714.6
2017-Aug-03 23:31N 37°41' W 122°21'2 3.7
2017-Aug-03 23:00N 37°40' W 122°23'815.8
2017-Aug-03 22:30N 37°48' W 122°24'0 0.8
2017-Aug-03 22:00N 37°48' W 122°24'0 0.1
2017-Aug-03 21:30N 37°48' W 122°24'0 0.1
2017-Aug-03 21:00N 37°48' W 122°24'0 0.0
2017-Aug-03 20:30N 37°48' W 122°24'0 0.0
2017-Aug-03 20:00N 37°48' W 122°24'0 0.0
2017-Aug-03 19:30N 37°48' W 122°24'0 0.0
2017-Aug-03 19:00N 37°48' W 122°24'0 0.0
2017-Aug-03 18:30N 37°48' W 122°24'0 0.0
2017-Aug-03 18:01N 37°48' W 122°24'1 1.8
2017-Aug-03 17:30N 37°49' W 122°25'0 0.0
2017-Aug-03 17:01N 37°49' W 122°25'2 3.0
2017-Aug-03 16:30N 37°48' W 122°23'815.7
2017-Aug-03 16:01N 37°40' W 122°23'815.0
2017-Aug-03 15:31N 37°47' W 122°21'2 4.6
2017-Aug-03 15:00N 37°47' W 122°18'3 3.2
2017-Aug-03 14:01N 37°46' W 122°21'3 6.7
2017-Aug-03 13:30N 37°48' W 122°17'1 0.1
2017-Aug-03 02:53N 37°48' W 122°17'1 3.2
2017-Aug-03 02:31N 37°48' W 122°18'816.9
2017-Aug-03 02:00N 37°40' W 122°23'714.3
2017-Aug-03 01:31N 37°44' W 122°15'714.5
2017-Aug-03 01:00N 37°48' W 122°24'5 9.2
2017-Aug-03 00:31N 37°47' W 122°18'1 1.5
2017-Aug-03 00:01N 37°48' W 122°17'714.1
2017-Aug-02 23:31N 37°41' W 122°21'2 4.1
2017-Aug-02 23:01N 37°40' W 122°23'815.8
2017-Aug-02 22:31N 37°48' W 122°24'0 0.8
2017-Aug-02 22:00N 37°48' W 122°24'0 0.0
2017-Aug-02 21:31N 37°48' W 122°24'0 0.0
2017-Aug-02 21:00N 37°48' W 122°24'0 0.0
2017-Aug-02 20:30N 37°48' W 122°24'0 0.0
2017-Aug-02 20:00N 37°48' W 122°24'0 0.0
2017-Aug-02 19:30N 37°48' W 122°24'0 0.0
2017-Aug-02 19:00N 37°48' W 122°24'0 0.0
2017-Aug-02 18:30N 37°48' W 122°24'0 0.0
2017-Aug-02 18:00N 37°48' W 122°24'0 0.0
2017-Aug-02 17:30N 37°48' W 122°24'0 0.0
2017-Aug-02 17:01N 37°48' W 122°24'0 0.8
2017-Aug-02 16:30N 37°48' W 122°24'815.8
2017-Aug-02 16:01N 37°40' W 122°23'816.1
2017-Aug-02 15:31N 37°48' W 122°20'2 4.2
2017-Aug-02 15:00N 37°47' W 122°18'3 2.9
2017-Aug-02 14:01N 37°46' W 122°21'3 5.7
2017-Aug-02 13:30N 37°47' W 122°18'1 1.4
2017-Aug-02 12:59N 37°48' W 122°17'0 0.0
2017-Aug-02 02:48N 37°48' W 122°17'1 2.8
2017-Aug-02 02:31N 37°47' W 122°18'917.1
2017-Aug-02 02:00N 37°40' W 122°23'  
Track history (hours):
 
Tides and Currents Weather Stations Pressure Air Temp Water Temp Dewpoint Dewpoint Depression Visibility Wind Speed Wind Dir Waves Ship Positions

Taurus

Owner: San Francisco Bay Area Water Emergency Transportation Authority, San Francisco, CA. More information available from US FCC via Universal Licensing System and Coast Guard Vessel Documentation Center.

Last reported at 2017-Aug-09 18:34 UTC. Time now 2017-Sep-19 15:32 UTC.
Position N 37°47' W 122°17'.
Warning: this ship's position is 40 days out of date.

Type: Passenger vessel. MMSI: 367436230.

Date/timePositionNaut miles runAvg speedWind from/ knotsBaromVisibWave heightAir tempDewpointWater temp
2017-Aug-09 18:34N 37°47' W 122°17'0 0.1
2017-Aug-09 18:28N 37°47' W 122°17'0 0.0
2017-Aug-07 21:15N 37°47' W 122°17'0 0.9
2017-Aug-07 21:01N 37°48' W 122°18'2 4.7
2017-Aug-07 20:29N 37°45' W 122°19'1 2.5
2017-Aug-07 20:00N 37°44' W 122°19'1 1.1
2017-Aug-07 19:31N 37°44' W 122°19'2 3.7
2017-Aug-07 19:00N 37°42' W 122°20'1 1.5
2017-Aug-07 18:30N 37°43' W 122°21'3 5.9
2017-Aug-07 18:00N 37°46' W 122°22'4 8.4
2017-Aug-07 17:30N 37°48' W 122°17'611.3
2017-Aug-07 16:59N 37°49' W 122°25'510.1
2017-Aug-07 16:31N 37°45' W 122°21'5 9.6
2017-Aug-07 16:00N 37°40' W 122°23'  
2017-Aug-05 03:28N 37°40' W 122°23'818.3
2017-Aug-05 03:01N 37°48' W 122°20'1 2.4
2017-Aug-05 02:31N 37°48' W 122°19'816.7
2017-Aug-05 02:00N 37°40' W 122°23'714.0
2017-Aug-05 01:31N 37°44' W 122°16'714.1
2017-Aug-05 01:00N 37°48' W 122°24'4 7.1
2017-Aug-05 00:30N 37°48' W 122°19'2 3.5
2017-Aug-05 00:01N 37°48' W 122°17'815.1
2017-Aug-04 23:31N 37°41' W 122°21'2 3.1
2017-Aug-04 23:01N 37°40' W 122°23'815.8
2017-Aug-04 22:30N 37°48' W 122°24'0 0.8
2017-Aug-04 22:00N 37°48' W 122°24'0 0.0
2017-Aug-04 21:30N 37°48' W 122°24'0 0.0
2017-Aug-04 21:01N 37°48' W 122°24'0 0.0
2017-Aug-04 20:28N 37°48' W 122°24'0 0.0
2017-Aug-04 19:58N 37°48' W 122°24'0 0.0
2017-Aug-04 19:28N 37°48' W 122°24'0 0.0
2017-Aug-04 18:58N 37°48' W 122°24'0 0.0
2017-Aug-04 18:28N 37°48' W 122°24'0 0.0
2017-Aug-04 17:58N 37°48' W 122°24'1 1.9
2017-Aug-04 17:30N 37°49' W 122°25'0 0.0
2017-Aug-04 17:00N 37°49' W 122°25'1 2.7
2017-Aug-04 16:30N 37°48' W 122°23'815.0
2017-Aug-04 15:59N 37°40' W 122°23'613.3
2017-Aug-04 15:31N 37°46' W 122°21'3 5.6
2017-Aug-04 15:00N 37°47' W 122°18'4 4.1
2017-Aug-04 14:01N 37°44' W 122°21'4 8.8
2017-Aug-04 13:30N 37°48' W 122°17'0 0.7
2017-Aug-04 12:58N 37°48' W 122°17'0 0.0
2017-Aug-04 02:40N 37°48' W 122°17'1 4.5
2017-Aug-04 02:31N 37°47' W 122°18'817.0
2017-Aug-04 02:01N 37°40' W 122°23'713.8
2017-Aug-04 01:31N 37°44' W 122°16'714.0
2017-Aug-04 01:00N 37°48' W 122°24'1 1.6
2017-Aug-04 00:30N 37°47' W 122°23'5 9.2
2017-Aug-04 00:01N 37°48' W 122°17'714.6
2017-Aug-03 23:31N 37°41' W 122°21'2 3.7
2017-Aug-03 23:00N 37°40' W 122°23'815.8
2017-Aug-03 22:30N 37°48' W 122°24'0 0.8
2017-Aug-03 22:00N 37°48' W 122°24'0 0.1
2017-Aug-03 21:30N 37°48' W 122°24'0 0.1
2017-Aug-03 21:00N 37°48' W 122°24'0 0.0
2017-Aug-03 20:30N 37°48' W 122°24'0 0.0
2017-Aug-03 20:00N 37°48' W 122°24'0 0.0
2017-Aug-03 19:30N 37°48' W 122°24'0 0.0
2017-Aug-03 19:00N 37°48' W 122°24'0 0.0
2017-Aug-03 18:30N 37°48' W 122°24'0 0.0
2017-Aug-03 18:01N 37°48' W 122°24'1 1.8
2017-Aug-03 17:30N 37°49' W 122°25'0 0.0
2017-Aug-03 17:01N 37°49' W 122°25'2 3.0
2017-Aug-03 16:30N 37°48' W 122°23'815.7
2017-Aug-03 16:01N 37°40' W 122°23'815.0
2017-Aug-03 15:31N 37°47' W 122°21'2 4.6
2017-Aug-03 15:00N 37°47' W 122°18'3 3.2
2017-Aug-03 14:01N 37°46' W 122°21'3 6.7
2017-Aug-03 13:30N 37°48' W 122°17'1 0.1
2017-Aug-03 02:53N 37°48' W 122°17'1 3.2
2017-Aug-03 02:31N 37°48' W 122°18'816.9
2017-Aug-03 02:00N 37°40' W 122°23'714.3
2017-Aug-03 01:31N 37°44' W 122°15'714.5
2017-Aug-03 01:00N 37°48' W 122°24'5 9.2
2017-Aug-03 00:31N 37°47' W 122°18'1 1.5
2017-Aug-03 00:01N 37°48' W 122°17'714.1
2017-Aug-02 23:31N 37°41' W 122°21'2 4.1
2017-Aug-02 23:01N 37°40' W 122°23'815.8
2017-Aug-02 22:31N 37°48' W 122°24'0 0.8
2017-Aug-02 22:00N 37°48' W 122°24'0 0.0
2017-Aug-02 21:31N 37°48' W 122°24'0 0.0
2017-Aug-02 21:00N 37°48' W 122°24'0 0.0
2017-Aug-02 20:30N 37°48' W 122°24'0 0.0
2017-Aug-02 20:00N 37°48' W 122°24'0 0.0
2017-Aug-02 19:30N 37°48' W 122°24'0 0.0
2017-Aug-02 19:00N 37°48' W 122°24'0 0.0
2017-Aug-02 18:30N 37°48' W 122°24'0 0.0
2017-Aug-02 18:00N 37°48' W 122°24'0 0.0
2017-Aug-02 17:30N 37°48' W 122°24'0 0.0
2017-Aug-02 17:01N 37°48' W 122°24'0 0.8
2017-Aug-02 16:30N 37°48' W 122°24'815.8
2017-Aug-02 16:01N 37°40' W 122°23'816.1
2017-Aug-02 15:31N 37°48' W 122°20'2 4.2
2017-Aug-02 15:00N 37°47' W 122°18'3 2.9
2017-Aug-02 14:01N 37°46' W 122°21'3 5.7
2017-Aug-02 13:30N 37°47' W 122°18'1 1.4
2017-Aug-02 12:59N 37°48' W 122°17'0 0.0
2017-Aug-02 02:48N 37°48' W 122°17'1 2.8
2017-Aug-02 02:31N 37°47' W 122°18'917.1
2017-Aug-02 02:00N 37°40' W 122°23'  

Dump ship's entire track history